sensor_id;sensor_type;location;lat;lon;timestamp;P1;durP1;ratioP1;P2;durP2;ratioP2
20480;SDS011;10399;50.754;3.366;2023-04-08T00:01:08;13.18;;;7.07;;
20480;SDS011;10399;50.754;3.366;2023-04-08T00:03:36;12.15;;;6.65;;
20480;SDS011;10399;50.754;3.366;2023-04-08T00:06:03;10.63;;;6.28;;
20480;SDS011;10399;50.754;3.366;2023-04-08T00:08:30;11.75;;;6.72;;
20480;SDS011;10399;50.754;3.366;2023-04-08T00:10:57;12.48;;;6.88;;
20480;SDS011;10399;50.754;3.366;2023-04-08T00:13:24;12.15;;;7.28;;
20480;SDS011;10399;50.754;3.366;2023-04-08T00:15:51;11.90;;;6.97;;
20480;SDS011;10399;50.754;3.366;2023-04-08T00:18:18;16.85;;;6.88;;
20480;SDS011;10399;50.754;3.366;2023-04-08T00:20:46;12.65;;;6.00;;
20480;SDS011;10399;50.754;3.366;2023-04-08T00:23:13;15.35;;;6.60;;
20480;SDS011;10399;50.754;3.366;2023-04-08T00:25:40;13.20;;;6.63;;
20480;SDS011;10399;50.754;3.366;2023-04-08T00:28:07;13.30;;;7.00;;
20480;SDS011;10399;50.754;3.366;2023-04-08T00:30:34;9.63;;;6.65;;
20480;SDS011;10399;50.754;3.366;2023-04-08T00:33:01;12.10;;;7.05;;
20480;SDS011;10399;50.754;3.366;2023-04-08T00:35:29;13.43;;;6.40;;
20480;SDS011;10399;50.754;3.366;2023-04-08T00:37:56;13.25;;;6.70;;
20480;SDS011;10399;50.754;3.366;2023-04-08T00:40:23;9.80;;;6.22;;
20480;SDS011;10399;50.754;3.366;2023-04-08T00:42:50;10.55;;;6.15;;
20480;SDS011;10399;50.754;3.366;2023-04-08T00:45:17;9.85;;;5.90;;
20480;SDS011;10399;50.754;3.366;2023-04-08T00:47:44;14.00;;;6.32;;
20480;SDS011;10399;50.754;3.366;2023-04-08T00:50:12;13.18;;;6.70;;
20480;SDS011;10399;50.754;3.366;2023-04-08T00:52:39;13.90;;;6.90;;
20480;SDS011;10399;50.754;3.366;2023-04-08T00:55:06;9.77;;;6.75;;
20480;SDS011;10399;50.754;3.366;2023-04-08T00:57:33;10.32;;;6.20;;
20480;SDS011;10399;50.754;3.366;2023-04-08T01:00:01;12.13;;;6.60;;
20480;SDS011;10399;50.754;3.366;2023-04-08T01:05:31;10.57;;;6.38;;
20480;SDS011;10399;50.754;3.366;2023-04-08T01:08:05;10.55;;;6.28;;
20480;SDS011;10399;50.754;3.366;2023-04-08T01:10:35;17.67;;;6.72;;
20480;SDS011;10399;50.754;3.366;2023-04-08T01:13:05;11.52;;;6.63;;
20480;SDS011;10399;50.754;3.366;2023-04-08T01:15:35;12.65;;;6.90;;
20480;SDS011;10399;50.754;3.366;2023-04-08T01:18:08;16.00;;;6.45;;
20480;SDS011;10399;50.754;3.366;2023-04-08T01:20:39;13.15;;;6.20;;
20480;SDS011;10399;50.754;3.366;2023-04-08T01:25:51;9.50;;;6.22;;
20480;SDS011;10399;50.754;3.366;2023-04-08T01:28:19;10.90;;;6.55;;
20480;SDS011;10399;50.754;3.366;2023-04-08T01:30:54;11.45;;;6.50;;
20480;SDS011;10399;50.754;3.366;2023-04-08T01:33:23;14.48;;;6.32;;
20480;SDS011;10399;50.754;3.366;2023-04-08T01:35:52;15.38;;;7.10;;
20480;SDS011;10399;50.754;3.366;2023-04-08T01:38:22;11.13;;;6.78;;
20480;SDS011;10399;50.754;3.366;2023-04-08T01:40:52;10.70;;;7.72;;
20480;SDS011;10399;50.754;3.366;2023-04-08T01:43:20;10.77;;;7.22;;
20480;SDS011;10399;50.754;3.366;2023-04-08T01:45:48;15.73;;;7.93;;
20480;SDS011;10399;50.754;3.366;2023-04-08T01:48:19;10.35;;;6.70;;
20480;SDS011;10399;50.754;3.366;2023-04-08T01:50:47;13.02;;;7.72;;
20480;SDS011;10399;50.754;3.366;2023-04-08T01:53:16;14.02;;;7.38;;
20480;SDS011;10399;50.754;3.366;2023-04-08T01:55:43;12.35;;;7.50;;
20480;SDS011;10399;50.754;3.366;2023-04-08T01:58:14;13.30;;;7.18;;
20480;SDS011;10399;50.754;3.366;2023-04-08T02:00:46;15.05;;;7.32;;
20480;SDS011;10399;50.754;3.366;2023-04-08T02:03:16;15.95;;;8.02;;
20480;SDS011;10399;50.754;3.366;2023-04-08T02:05:45;11.80;;;8.27;;
20480;SDS011;10399;50.754;3.366;2023-04-08T02:08:12;16.95;;;7.55;;
20480;SDS011;10399;50.754;3.366;2023-04-08T02:10:39;15.48;;;7.90;;
20480;SDS011;10399;50.754;3.366;2023-04-08T02:13:07;17.05;;;8.15;;
20480;SDS011;10399;50.754;3.366;2023-04-08T02:15:35;17.75;;;7.88;;
20480;SDS011;10399;50.754;3.366;2023-04-08T02:18:10;15.35;;;8.25;;
20480;SDS011;10399;50.754;3.366;2023-04-08T02:20:42;14.57;;;7.75;;
20480;SDS011;10399;50.754;3.366;2023-04-08T02:23:13;14.88;;;8.00;;
20480;SDS011;10399;50.754;3.366;2023-04-08T02:25:47;12.90;;;8.30;;
20480;SDS011;10399;50.754;3.366;2023-04-08T02:28:16;12.75;;;7.32;;
20480;SDS011;10399;50.754;3.366;2023-04-08T02:30:49;13.63;;;8.63;;
20480;SDS011;10399;50.754;3.366;2023-04-08T02:33:18;12.35;;;7.90;;
20480;SDS011;10399;50.754;3.366;2023-04-08T02:35:48;18.42;;;8.10;;
20480;SDS011;10399;50.754;3.366;2023-04-08T02:38:16;17.33;;;7.82;;
20480;SDS011;10399;50.754;3.366;2023-04-08T02:40:44;14.00;;;8.07;;
20480;SDS011;10399;50.754;3.366;2023-04-08T02:43:10;19.42;;;9.13;;
20480;SDS011;10399;50.754;3.366;2023-04-08T02:45:38;18.63;;;7.75;;
20480;SDS011;10399;50.754;3.366;2023-04-08T02:48:07;17.60;;;8.77;;
20480;SDS011;10399;50.754;3.366;2023-04-08T02:50:35;15.38;;;8.88;;
20480;SDS011;10399;50.754;3.366;2023-04-08T02:53:02;14.88;;;8.48;;
20480;SDS011;10399;50.754;3.366;2023-04-08T02:55:29;15.85;;;8.40;;
20480;SDS011;10399;50.754;3.366;2023-04-08T02:57:56;16.95;;;8.52;;
20480;SDS011;10399;50.754;3.366;2023-04-08T03:00:23;18.17;;;8.90;;
20480;SDS011;10399;50.754;3.366;2023-04-08T03:02:50;15.90;;;7.78;;
20480;SDS011;10399;50.754;3.366;2023-04-08T03:05:18;13.82;;;8.23;;
20480;SDS011;10399;50.754;3.366;2023-04-08T03:07:45;15.27;;;8.20;;
20480;SDS011;10399;50.754;3.366;2023-04-08T03:10:12;13.63;;;7.47;;
20480;SDS011;10399;50.754;3.366;2023-04-08T03:12:39;13.90;;;8.23;;
20480;SDS011;10399;50.754;3.366;2023-04-08T03:15:06;18.50;;;8.00;;
20480;SDS011;10399;50.754;3.366;2023-04-08T03:17:33;11.60;;;8.07;;
20480;SDS011;10399;50.754;3.366;2023-04-08T03:20:01;13.10;;;8.02;;
20480;SDS011;10399;50.754;3.366;2023-04-08T03:22:32;17.20;;;7.85;;
20480;SDS011;10399;50.754;3.366;2023-04-08T03:24:59;19.95;;;7.93;;
20480;SDS011;10399;50.754;3.366;2023-04-08T03:27:26;15.27;;;8.13;;
20480;SDS011;10399;50.754;3.366;2023-04-08T03:29:53;13.00;;;7.82;;
20480;SDS011;10399;50.754;3.366;2023-04-08T03:32:20;12.18;;;7.68;;
20480;SDS011;10399;50.754;3.366;2023-04-08T03:34:47;15.65;;;7.53;;
20480;SDS011;10399;50.754;3.366;2023-04-08T03:37:17;14.32;;;7.72;;
20480;SDS011;10399;50.754;3.366;2023-04-08T03:39:44;13.00;;;7.80;;
20480;SDS011;10399;50.754;3.366;2023-04-08T03:42:11;12.75;;;7.85;;
20480;SDS011;10399;50.754;3.366;2023-04-08T03:44:38;12.20;;;7.25;;
20480;SDS011;10399;50.754;3.366;2023-04-08T03:47:05;13.00;;;7.60;;
20480;SDS011;10399;50.754;3.366;2023-04-08T03:49:32;11.93;;;7.15;;
20480;SDS011;10399;50.754;3.366;2023-04-08T03:51:59;15.18;;;7.32;;
20480;SDS011;10399;50.754;3.366;2023-04-08T03:54:26;18.20;;;7.47;;
20480;SDS011;10399;50.754;3.366;2023-04-08T03:56:54;15.57;;;7.57;;
20480;SDS011;10399;50.754;3.366;2023-04-08T03:59:21;13.75;;;7.97;;
20480;SDS011;10399;50.754;3.366;2023-04-08T04:01:48;16.35;;;8.15;;
20480;SDS011;10399;50.754;3.366;2023-04-08T04:04:16;16.45;;;8.32;;
20480;SDS011;10399;50.754;3.366;2023-04-08T04:06:44;11.50;;;7.70;;
20480;SDS011;10399;50.754;3.366;2023-04-08T04:09:11;12.18;;;7.57;;
20480;SDS011;10399;50.754;3.366;2023-04-08T04:11:38;15.07;;;7.35;;
20480;SDS011;10399;50.754;3.366;2023-04-08T04:14:05;17.73;;;8.32;;
20480;SDS011;10399;50.754;3.366;2023-04-08T04:16:32;14.95;;;8.88;;
20480;SDS011;10399;50.754;3.366;2023-04-08T04:18:59;12.20;;;7.88;;
20480;SDS011;10399;50.754;3.366;2023-04-08T04:21:26;21.17;;;9.10;;
20480;SDS011;10399;50.754;3.366;2023-04-08T04:23:53;12.88;;;7.65;;
20480;SDS011;10399;50.754;3.366;2023-04-08T04:26:21;17.95;;;8.52;;
20480;SDS011;10399;50.754;3.366;2023-04-08T04:28:47;18.25;;;8.02;;
20480;SDS011;10399;50.754;3.366;2023-04-08T04:31:21;13.95;;;8.40;;
20480;SDS011;10399;50.754;3.366;2023-04-08T04:33:51;14.15;;;8.43;;
20480;SDS011;10399;50.754;3.366;2023-04-08T04:36:19;19.35;;;8.57;;
20480;SDS011;10399;50.754;3.366;2023-04-08T04:38:46;14.85;;;8.93;;
20480;SDS011;10399;50.754;3.366;2023-04-08T04:41:15;15.90;;;8.38;;
20480;SDS011;10399;50.754;3.366;2023-04-08T04:43:43;14.82;;;8.32;;
20480;SDS011;10399;50.754;3.366;2023-04-08T04:46:09;18.65;;;9.02;;
20480;SDS011;10399;50.754;3.366;2023-04-08T04:48:36;18.02;;;10.63;;
20480;SDS011;10399;50.754;3.366;2023-04-08T04:51:03;17.15;;;9.55;;
20480;SDS011;10399;50.754;3.366;2023-04-08T04:53:32;18.90;;;9.63;;
20480;SDS011;10399;50.754;3.366;2023-04-08T04:56:00;15.57;;;8.70;;
20480;SDS011;10399;50.754;3.366;2023-04-08T04:58:27;15.30;;;7.88;;
20480;SDS011;10399;50.754;3.366;2023-04-08T05:00:55;15.75;;;8.13;;
20480;SDS011;10399;50.754;3.366;2023-04-08T05:03:22;17.02;;;8.00;;
20480;SDS011;10399;50.754;3.366;2023-04-08T05:05:50;13.35;;;8.23;;
20480;SDS011;10399;50.754;3.366;2023-04-08T05:08:20;12.70;;;7.55;;
20480;SDS011;10399;50.754;3.366;2023-04-08T05:10:47;13.50;;;7.07;;
20480;SDS011;10399;50.754;3.366;2023-04-08T05:13:16;10.68;;;6.82;;
20480;SDS011;10399;50.754;3.366;2023-04-08T05:15:43;12.48;;;6.53;;
20480;SDS011;10399;50.754;3.366;2023-04-08T05:18:11;11.23;;;6.63;;
20480;SDS011;10399;50.754;3.366;2023-04-08T05:20:38;12.98;;;6.30;;
20480;SDS011;10399;50.754;3.366;2023-04-08T05:23:05;9.65;;;6.28;;
20480;SDS011;10399;50.754;3.366;2023-04-08T05:25:33;12.70;;;7.15;;
20480;SDS011;10399;50.754;3.366;2023-04-08T05:28:00;8.68;;;6.40;;
20480;SDS011;10399;50.754;3.366;2023-04-08T05:30:27;12.80;;;6.90;;
20480;SDS011;10399;50.754;3.366;2023-04-08T05:32:54;14.85;;;6.80;;
20480;SDS011;10399;50.754;3.366;2023-04-08T05:35:25;17.00;;;7.95;;
20480;SDS011;10399;50.754;3.366;2023-04-08T05:37:52;12.43;;;7.90;;
20480;SDS011;10399;50.754;3.366;2023-04-08T05:40:19;12.57;;;8.25;;
20480;SDS011;10399;50.754;3.366;2023-04-08T05:42:46;15.77;;;8.25;;
20480;SDS011;10399;50.754;3.366;2023-04-08T05:45:13;13.40;;;7.65;;
20480;SDS011;10399;50.754;3.366;2023-04-08T05:47:40;12.98;;;7.45;;
20480;SDS011;10399;50.754;3.366;2023-04-08T05:50:07;13.70;;;7.40;;
20480;SDS011;10399;50.754;3.366;2023-04-08T05:52:34;13.02;;;7.78;;
20480;SDS011;10399;50.754;3.366;2023-04-08T05:55:01;13.48;;;7.10;;
20480;SDS011;10399;50.754;3.366;2023-04-08T05:57:28;15.60;;;7.63;;
20480;SDS011;10399;50.754;3.366;2023-04-08T05:59:55;12.65;;;7.43;;
20480;SDS011;10399;50.754;3.366;2023-04-08T06:02:22;11.23;;;6.75;;
20480;SDS011;10399;50.754;3.366;2023-04-08T06:04:49;11.70;;;7.05;;
20480;SDS011;10399;50.754;3.366;2023-04-08T06:07:16;10.63;;;6.40;;
20480;SDS011;10399;50.754;3.366;2023-04-08T06:09:43;9.38;;;6.78;;
20480;SDS011;10399;50.754;3.366;2023-04-08T06:12:10;11.80;;;7.57;;
20480;SDS011;10399;50.754;3.366;2023-04-08T06:14:38;10.02;;;7.60;;
20480;SDS011;10399;50.754;3.366;2023-04-08T06:17:07;14.40;;;7.15;;
20480;SDS011;10399;50.754;3.366;2023-04-08T06:19:34;13.00;;;7.43;;
20480;SDS011;10399;50.754;3.366;2023-04-08T06:22:01;12.80;;;6.85;;
20480;SDS011;10399;50.754;3.366;2023-04-08T06:24:28;12.25;;;7.50;;
20480;SDS011;10399;50.754;3.366;2023-04-08T06:26:55;10.88;;;6.32;;
20480;SDS011;10399;50.754;3.366;2023-04-08T06:29:22;11.52;;;7.63;;
20480;SDS011;10399;50.754;3.366;2023-04-08T06:31:49;10.43;;;7.32;;
20480;SDS011;10399;50.754;3.366;2023-04-08T06:34:16;12.68;;;7.70;;
20480;SDS011;10399;50.754;3.366;2023-04-08T06:36:43;12.02;;;6.97;;
20480;SDS011;10399;50.754;3.366;2023-04-08T06:39:10;13.25;;;7.20;;
20480;SDS011;10399;50.754;3.366;2023-04-08T06:41:37;14.50;;;6.90;;
20480;SDS011;10399;50.754;3.366;2023-04-08T06:44:04;11.65;;;6.82;;
20480;SDS011;10399;50.754;3.366;2023-04-08T06:46:31;15.60;;;7.57;;
20480;SDS011;10399;50.754;3.366;2023-04-08T06:48:58;14.00;;;6.78;;
20480;SDS011;10399;50.754;3.366;2023-04-08T06:51:25;9.55;;;6.85;;
20480;SDS011;10399;50.754;3.366;2023-04-08T06:53:53;11.88;;;7.07;;
20480;SDS011;10399;50.754;3.366;2023-04-08T06:56:20;14.15;;;7.85;;
20480;SDS011;10399;50.754;3.366;2023-04-08T06:58:48;14.18;;;6.63;;
20480;SDS011;10399;50.754;3.366;2023-04-08T07:01:15;8.80;;;6.90;;
20480;SDS011;10399;50.754;3.366;2023-04-08T07:03:42;12.23;;;7.43;;
20480;SDS011;10399;50.754;3.366;2023-04-08T07:06:09;12.02;;;7.10;;
20480;SDS011;10399;50.754;3.366;2023-04-08T07:08:36;9.35;;;6.45;;
20480;SDS011;10399;50.754;3.366;2023-04-08T07:11:04;13.25;;;6.80;;
20480;SDS011;10399;50.754;3.366;2023-04-08T07:13:31;10.13;;;7.07;;
20480;SDS011;10399;50.754;3.366;2023-04-08T07:15:58;14.98;;;7.18;;
20480;SDS011;10399;50.754;3.366;2023-04-08T07:18:25;12.65;;;6.38;;
20480;SDS011;10399;50.754;3.366;2023-04-08T07:20:53;12.95;;;6.95;;
20480;SDS011;10399;50.754;3.366;2023-04-08T07:23:21;9.25;;;6.60;;
20480;SDS011;10399;50.754;3.366;2023-04-08T07:25:48;11.05;;;6.75;;
20480;SDS011;10399;50.754;3.366;2023-04-08T07:28:14;13.80;;;6.82;;
20480;SDS011;10399;50.754;3.366;2023-04-08T07:30:41;11.65;;;7.45;;
20480;SDS011;10399;50.754;3.366;2023-04-08T07:33:08;8.10;;;6.13;;
20480;SDS011;10399;50.754;3.366;2023-04-08T07:35:35;10.73;;;6.43;;
20480;SDS011;10399;50.754;3.366;2023-04-08T07:38:03;9.35;;;6.43;;
20480;SDS011;10399;50.754;3.366;2023-04-08T07:40:34;11.18;;;5.93;;
20480;SDS011;10399;50.754;3.366;2023-04-08T07:43:01;9.60;;;5.68;;
20480;SDS011;10399;50.754;3.366;2023-04-08T07:45:28;9.73;;;6.03;;
20480;SDS011;10399;50.754;3.366;2023-04-08T07:47:55;11.10;;;6.15;;
20480;SDS011;10399;50.754;3.366;2023-04-08T07:50:22;10.07;;;6.10;;
20480;SDS011;10399;50.754;3.366;2023-04-08T07:52:49;11.50;;;5.88;;
20480;SDS011;10399;50.754;3.366;2023-04-08T07:55:18;7.40;;;5.70;;
20480;SDS011;10399;50.754;3.366;2023-04-08T07:57:45;7.72;;;5.70;;
20480;SDS011;10399;50.754;3.366;2023-04-08T08:00:12;10.07;;;5.40;;
20480;SDS011;10399;50.754;3.366;2023-04-08T08:02:46;8.77;;;5.20;;
20480;SDS011;10399;50.754;3.366;2023-04-08T08:05:14;7.40;;;5.75;;
20480;SDS011;10399;50.754;3.366;2023-04-08T08:07:41;8.55;;;5.13;;
20480;SDS011;10399;50.754;3.366;2023-04-08T08:10:08;8.18;;;4.43;;
20480;SDS011;10399;50.754;3.366;2023-04-08T08:12:36;8.05;;;5.30;;
20480;SDS011;10399;50.754;3.366;2023-04-08T08:15:04;8.70;;;5.18;;
20480;SDS011;10399;50.754;3.366;2023-04-08T08:17:32;7.60;;;5.47;;
20480;SDS011;10399;50.754;3.366;2023-04-08T08:20:00;10.20;;;5.53;;
20480;SDS011;10399;50.754;3.366;2023-04-08T08:22:29;8.57;;;5.53;;
20480;SDS011;10399;50.754;3.366;2023-04-08T08:24:57;8.02;;;4.78;;
20480;SDS011;10399;50.754;3.366;2023-04-08T08:27:24;9.90;;;5.55;;
20480;SDS011;10399;50.754;3.366;2023-04-08T08:29:51;12.27;;;5.45;;
20480;SDS011;10399;50.754;3.366;2023-04-08T08:32:18;8.45;;;5.38;;
20480;SDS011;10399;50.754;3.366;2023-04-08T08:34:45;7.32;;;5.25;;
20480;SDS011;10399;50.754;3.366;2023-04-08T08:37:12;9.75;;;5.75;;
20480;SDS011;10399;50.754;3.366;2023-04-08T08:39:39;8.70;;;4.97;;
20480;SDS011;10399;50.754;3.366;2023-04-08T08:42:16;10.32;;;5.53;;
20480;SDS011;10399;50.754;3.366;2023-04-08T08:44:44;7.50;;;5.53;;
20480;SDS011;10399;50.754;3.366;2023-04-08T08:47:12;8.93;;;5.38;;
20480;SDS011;10399;50.754;3.366;2023-04-08T08:49:39;9.43;;;5.07;;
20480;SDS011;10399;50.754;3.366;2023-04-08T08:52:06;8.82;;;5.47;;
20480;SDS011;10399;50.754;3.366;2023-04-08T08:54:33;8.70;;;5.05;;
20480;SDS011;10399;50.754;3.366;2023-04-08T08:57:01;9.27;;;4.78;;
20480;SDS011;10399;50.754;3.366;2023-04-08T08:59:27;8.30;;;4.55;;
20480;SDS011;10399;50.754;3.366;2023-04-08T09:01:54;8.10;;;5.30;;
20480;SDS011;10399;50.754;3.366;2023-04-08T09:04:22;7.38;;;4.90;;
20480;SDS011;10399;50.754;3.366;2023-04-08T09:07:08;6.75;;;5.13;;
20480;SDS011;10399;50.754;3.366;2023-04-08T09:09:46;8.20;;;5.25;;
20480;SDS011;10399;50.754;3.366;2023-04-08T09:12:15;8.88;;;5.63;;
20480;SDS011;10399;50.754;3.366;2023-04-08T09:14:43;10.63;;;6.05;;
20480;SDS011;10399;50.754;3.366;2023-04-08T09:17:10;10.85;;;5.68;;
20480;SDS011;10399;50.754;3.366;2023-04-08T09:19:38;9.43;;;5.85;;
20480;SDS011;10399;50.754;3.366;2023-04-08T09:22:09;9.43;;;5.93;;
20480;SDS011;10399;50.754;3.366;2023-04-08T09:24:37;5.80;;;5.15;;
20480;SDS011;10399;50.754;3.366;2023-04-08T09:27:04;8.40;;;5.07;;
20480;SDS011;10399;50.754;3.366;2023-04-08T09:29:31;7.70;;;4.32;;
20480;SDS011;10399;50.754;3.366;2023-04-08T09:32:04;6.35;;;4.95;;
20480;SDS011;10399;50.754;3.366;2023-04-08T09:34:32;11.15;;;5.20;;
20480;SDS011;10399;50.754;3.366;2023-04-08T09:36:59;9.60;;;5.57;;
20480;SDS011;10399;50.754;3.366;2023-04-08T09:39:27;9.70;;;5.53;;
20480;SDS011;10399;50.754;3.366;2023-04-08T09:41:54;9.25;;;5.80;;
20480;SDS011;10399;50.754;3.366;2023-04-08T09:44:27;8.63;;;5.55;;
20480;SDS011;10399;50.754;3.366;2023-04-08T09:47:00;10.70;;;5.97;;
20480;SDS011;10399;50.754;3.366;2023-04-08T09:49:48;12.68;;;5.93;;
20480;SDS011;10399;50.754;3.366;2023-04-08T09:52:23;11.35;;;6.20;;
20480;SDS011;10399;50.754;3.366;2023-04-08T09:55:02;8.65;;;5.88;;
20480;SDS011;10399;50.754;3.366;2023-04-08T10:00:38;10.77;;;6.10;;
20480;SDS011;10399;50.754;3.366;2023-04-08T10:03:10;11.45;;;6.28;;
20480;SDS011;10399;50.754;3.366;2023-04-08T10:05:54;7.57;;;6.22;;
20480;SDS011;10399;50.754;3.366;2023-04-08T10:08:25;8.65;;;5.80;;
20480;SDS011;10399;50.754;3.366;2023-04-08T10:10:52;8.75;;;5.88;;
20480;SDS011;10399;50.754;3.366;2023-04-08T10:13:21;10.73;;;6.38;;
20480;SDS011;10399;50.754;3.366;2023-04-08T10:15:49;10.30;;;6.18;;
20480;SDS011;10399;50.754;3.366;2023-04-08T10:20:46;8.65;;;6.38;;
20480;SDS011;10399;50.754;3.366;2023-04-08T10:23:15;10.43;;;6.35;;
20480;SDS011;10399;50.754;3.366;2023-04-08T10:25:43;10.82;;;6.50;;
20480;SDS011;10399;50.754;3.366;2023-04-08T10:30:48;8.93;;;6.13;;
20480;SDS011;10399;50.754;3.366;2023-04-08T10:33:16;10.70;;;5.90;;
20480;SDS011;10399;50.754;3.366;2023-04-08T10:38:32;9.98;;;6.25;;
20480;SDS011;10399;50.754;3.366;2023-04-08T10:40:59;12.98;;;6.55;;
20480;SDS011;10399;50.754;3.366;2023-04-08T10:43:32;11.95;;;7.20;;
20480;SDS011;10399;50.754;3.366;2023-04-08T10:45:59;9.40;;;6.93;;
20480;SDS011;10399;50.754;3.366;2023-04-08T10:48:27;8.10;;;6.40;;
20480;SDS011;10399;50.754;3.366;2023-04-08T10:50:59;11.77;;;6.50;;
20480;SDS011;10399;50.754;3.366;2023-04-08T10:53:27;8.82;;;6.85;;
20480;SDS011;10399;50.754;3.366;2023-04-08T10:56:09;12.40;;;7.28;;
20480;SDS011;10399;50.754;3.366;2023-04-08T10:58:51;9.05;;;6.68;;
20480;SDS011;10399;50.754;3.366;2023-04-08T11:01:20;9.02;;;6.63;;
20480;SDS011;10399;50.754;3.366;2023-04-08T11:03:48;8.65;;;6.53;;
20480;SDS011;10399;50.754;3.366;2023-04-08T11:06:16;10.05;;;6.60;;
20480;SDS011;10399;50.754;3.366;2023-04-08T11:08:44;11.48;;;6.80;;
20480;SDS011;10399;50.754;3.366;2023-04-08T11:11:12;10.77;;;6.80;;
20480;SDS011;10399;50.754;3.366;2023-04-08T11:13:44;13.90;;;7.25;;
20480;SDS011;10399;50.754;3.366;2023-04-08T11:16:19;9.02;;;6.80;;
20480;SDS011;10399;50.754;3.366;2023-04-08T11:18:49;8.82;;;7.00;;
20480;SDS011;10399;50.754;3.366;2023-04-08T11:21:16;10.10;;;7.13;;
20480;SDS011;10399;50.754;3.366;2023-04-08T11:23:43;10.32;;;8.02;;
20480;SDS011;10399;50.754;3.366;2023-04-08T11:26:10;16.40;;;7.70;;
20480;SDS011;10399;50.754;3.366;2023-04-08T11:28:39;13.27;;;7.72;;
20480;SDS011;10399;50.754;3.366;2023-04-08T11:31:06;12.18;;;7.47;;
20480;SDS011;10399;50.754;3.366;2023-04-08T11:33:34;13.38;;;8.25;;
20480;SDS011;10399;50.754;3.366;2023-04-08T11:36:02;9.13;;;6.80;;
20480;SDS011;10399;50.754;3.366;2023-04-08T11:38:33;11.73;;;8.07;;
20480;SDS011;10399;50.754;3.366;2023-04-08T11:41:06;12.50;;;8.10;;
20480;SDS011;10399;50.754;3.366;2023-04-08T11:43:33;8.85;;;6.82;;
20480;SDS011;10399;50.754;3.366;2023-04-08T11:46:09;10.77;;;7.30;;
20480;SDS011;10399;50.754;3.366;2023-04-08T11:48:38;11.30;;;8.05;;
20480;SDS011;10399;50.754;3.366;2023-04-08T11:51:05;10.63;;;7.72;;
20480;SDS011;10399;50.754;3.366;2023-04-08T11:53:34;12.98;;;7.55;;
20480;SDS011;10399;50.754;3.366;2023-04-08T11:56:19;10.35;;;7.40;;
20480;SDS011;10399;50.754;3.366;2023-04-08T11:58:47;11.57;;;7.60;;
20480;SDS011;10399;50.754;3.366;2023-04-08T12:01:15;11.25;;;7.25;;
20480;SDS011;10399;50.754;3.366;2023-04-08T12:06:25;10.43;;;8.10;;
20480;SDS011;10399;50.754;3.366;2023-04-08T12:08:54;11.95;;;8.27;;
20480;SDS011;10399;50.754;3.366;2023-04-08T12:11:22;11.43;;;7.32;;
20480;SDS011;10399;50.754;3.366;2023-04-08T12:13:49;13.27;;;7.82;;
20480;SDS011;10399;50.754;3.366;2023-04-08T12:16:18;11.82;;;8.30;;
20480;SDS011;10399;50.754;3.366;2023-04-08T12:18:46;10.98;;;7.95;;
20480;SDS011;10399;50.754;3.366;2023-04-08T12:21:13;12.40;;;8.20;;
20480;SDS011;10399;50.754;3.366;2023-04-08T12:23:40;10.82;;;7.53;;
20480;SDS011;10399;50.754;3.366;2023-04-08T12:26:07;14.25;;;8.80;;
20480;SDS011;10399;50.754;3.366;2023-04-08T12:28:34;12.48;;;8.15;;
20480;SDS011;10399;50.754;3.366;2023-04-08T12:31:02;11.02;;;7.78;;
20480;SDS011;10399;50.754;3.366;2023-04-08T12:33:29;15.85;;;8.57;;
20480;SDS011;10399;50.754;3.366;2023-04-08T12:35:57;18.15;;;8.35;;
20480;SDS011;10399;50.754;3.366;2023-04-08T12:38:24;12.60;;;8.35;;
20480;SDS011;10399;50.754;3.366;2023-04-08T12:40:52;14.30;;;8.70;;
20480;SDS011;10399;50.754;3.366;2023-04-08T12:43:20;14.02;;;8.80;;
20480;SDS011;10399;50.754;3.366;2023-04-08T12:45:48;17.85;;;9.40;;
20480;SDS011;10399;50.754;3.366;2023-04-08T12:48:16;17.60;;;10.02;;
20480;SDS011;10399;50.754;3.366;2023-04-08T12:50:43;17.60;;;9.32;;
20480;SDS011;10399;50.754;3.366;2023-04-08T12:53:10;16.55;;;9.75;;
20480;SDS011;10399;50.754;3.366;2023-04-08T12:55:37;18.10;;;10.23;;
20480;SDS011;10399;50.754;3.366;2023-04-08T12:58:04;15.65;;;9.40;;
20480;SDS011;10399;50.754;3.366;2023-04-08T13:00:31;14.07;;;9.32;;
20480;SDS011;10399;50.754;3.366;2023-04-08T13:02:58;14.52;;;10.18;;
20480;SDS011;10399;50.754;3.366;2023-04-08T13:05:26;15.15;;;9.65;;
20480;SDS011;10399;50.754;3.366;2023-04-08T13:08:07;17.52;;;10.18;;
20480;SDS011;10399;50.754;3.366;2023-04-08T13:10:34;17.63;;;10.25;;
20480;SDS011;10399;50.754;3.366;2023-04-08T13:13:01;18.05;;;10.10;;
20480;SDS011;10399;50.754;3.366;2023-04-08T13:15:29;22.40;;;9.82;;
20480;SDS011;10399;50.754;3.366;2023-04-08T13:17:56;13.13;;;9.60;;
20480;SDS011;10399;50.754;3.366;2023-04-08T13:20:23;19.33;;;10.88;;
20480;SDS011;10399;50.754;3.366;2023-04-08T13:22:51;19.20;;;11.27;;
20480;SDS011;10399;50.754;3.366;2023-04-08T13:25:18;18.80;;;10.85;;
20480;SDS011;10399;50.754;3.366;2023-04-08T13:27:46;21.50;;;11.55;;
20480;SDS011;10399;50.754;3.366;2023-04-08T13:30:13;25.27;;;12.23;;
20480;SDS011;10399;50.754;3.366;2023-04-08T13:32:40;23.05;;;12.18;;
20480;SDS011;10399;50.754;3.366;2023-04-08T13:35:07;19.98;;;11.43;;
20480;SDS011;10399;50.754;3.366;2023-04-08T13:37:35;23.63;;;11.98;;
20480;SDS011;10399;50.754;3.366;2023-04-08T13:40:02;21.98;;;11.30;;
20480;SDS011;10399;50.754;3.366;2023-04-08T13:42:29;23.65;;;13.27;;
20480;SDS011;10399;50.754;3.366;2023-04-08T13:44:56;25.40;;;11.80;;
20480;SDS011;10399;50.754;3.366;2023-04-08T13:47:23;21.63;;;11.35;;
20480;SDS011;10399;50.754;3.366;2023-04-08T13:49:52;21.15;;;11.95;;
20480;SDS011;10399;50.754;3.366;2023-04-08T13:52:19;26.38;;;12.38;;
20480;SDS011;10399;50.754;3.366;2023-04-08T13:54:46;25.58;;;13.00;;
20480;SDS011;10399;50.754;3.366;2023-04-08T13:57:13;26.85;;;12.13;;
20480;SDS011;10399;50.754;3.366;2023-04-08T13:59:40;24.88;;;12.90;;
20480;SDS011;10399;50.754;3.366;2023-04-08T14:02:09;35.30;;;14.05;;
20480;SDS011;10399;50.754;3.366;2023-04-08T14:04:38;21.63;;;11.82;;
20480;SDS011;10399;50.754;3.366;2023-04-08T14:07:05;22.48;;;12.68;;
20480;SDS011;10399;50.754;3.366;2023-04-08T14:09:32;29.77;;;12.70;;
20480;SDS011;10399;50.754;3.366;2023-04-08T14:12:01;30.75;;;14.30;;
20480;SDS011;10399;50.754;3.366;2023-04-08T14:14:28;23.48;;;13.57;;
20480;SDS011;10399;50.754;3.366;2023-04-08T14:16:55;18.55;;;12.25;;
20480;SDS011;10399;50.754;3.366;2023-04-08T14:19:22;31.63;;;12.88;;
20480;SDS011;10399;50.754;3.366;2023-04-08T14:21:49;22.30;;;11.85;;
20480;SDS011;10399;50.754;3.366;2023-04-08T14:24:16;28.13;;;13.10;;
20480;SDS011;10399;50.754;3.366;2023-04-08T14:26:43;27.02;;;13.43;;
20480;SDS011;10399;50.754;3.366;2023-04-08T14:29:10;28.83;;;13.40;;
20480;SDS011;10399;50.754;3.366;2023-04-08T14:31:38;25.35;;;12.98;;
20480;SDS011;10399;50.754;3.366;2023-04-08T14:34:05;26.88;;;12.73;;
20480;SDS011;10399;50.754;3.366;2023-04-08T14:36:32;24.17;;;13.02;;
20480;SDS011;10399;50.754;3.366;2023-04-08T14:38:59;33.00;;;13.25;;
20480;SDS011;10399;50.754;3.366;2023-04-08T14:41:26;23.25;;;12.95;;
20480;SDS011;10399;50.754;3.366;2023-04-08T14:43:53;25.85;;;13.23;;
20480;SDS011;10399;50.754;3.366;2023-04-08T14:46:20;21.75;;;12.43;;
20480;SDS011;10399;50.754;3.366;2023-04-08T14:48:48;26.88;;;12.05;;
20480;SDS011;10399;50.754;3.366;2023-04-08T14:51:15;19.75;;;11.68;;
20480;SDS011;10399;50.754;3.366;2023-04-08T14:53:43;29.60;;;12.77;;
20480;SDS011;10399;50.754;3.366;2023-04-08T14:56:10;29.70;;;13.63;;
20480;SDS011;10399;50.754;3.366;2023-04-08T14:58:36;25.85;;;12.40;;
20480;SDS011;10399;50.754;3.366;2023-04-08T15:01:06;49.42;;;15.18;;